Time;durP1;ratioP1;P1;durP2;ratioP2;P2;SDS_P1;SDS_P2;PMS_P1;PMS_P2;Temp;Humidity;BMP_temperature;BMP_pressure;BME280_temperature;BME280_humidity;BME280_pressure;Samples;Min_cycle;Max_cycle;Signal;HPM_P1;HPM_P2
2022/12/28 00:01:54;;;;;;;;;;;0.00;99.90;;;;;;5038274;28;19922;-68
2022/12/28 00:04:20;;;;;;;;;;;-0.10;99.90;;;;;;5041211;28;19996;-68
2022/12/28 00:06:49;;;;;;;;;;;0.00;99.90;;;;;;5042366;28;20383;-68
2022/12/28 00:09:15;;;;;;;;;;;-0.10;99.90;;;;;;5043551;28;19927;-68
2022/12/28 00:11:42;;;;;;;;;;;-0.10;99.90;;;;;;5043431;28;19960;-68
2022/12/28 00:14:09;;;;;;;;;;;-0.10;99.90;;;;;;5043374;28;20004;-68
2022/12/28 00:16:38;;;;;;;;;;;-0.10;99.90;;;;;;5042569;28;20339;-68
2022/12/28 00:19:06;;;;;;;;;;;-0.10;99.90;;;;;;5043121;28;19963;-68
2022/12/28 00:21:32;;;;;;;;;;;-0.10;99.90;;;;;;5043205;28;19928;-68
2022/12/28 00:24:00;;;;;;;;;;;-0.20;99.90;;;;;;5043388;28;19987;-68
2022/12/28 00:26:27;;;;;;;;;;;-0.20;99.90;;;;;;5042302;28;20004;-68
2022/12/28 00:28:54;;;;;;;;;;;-0.20;99.90;;;;;;5036267;28;20116;-68
2022/12/28 00:31:21;;;;;;;;;;;-0.20;99.90;;;;;;5023392;28;20001;-68
2022/12/28 00:33:48;;;;;;;;;;;-0.20;99.90;;;;;;5023202;28;19928;-68
2022/12/28 00:36:15;;;;;;;;;;;-0.30;99.90;;;;;;5022369;28;20231;-68
2022/12/28 00:38:42;;;;;;;;;;;-0.30;99.90;;;;;;5022968;28;20102;-68
2022/12/28 00:41:09;;;;;;;;;;;-0.30;99.90;;;;;;5027121;28;19971;-68
2022/12/28 00:43:36;;;;;;;;;;;-0.30;99.90;;;;;;5027463;28;19953;-68
2022/12/28 00:46:03;;;;;;;;;;;-0.30;99.90;;;;;;5026626;28;19956;-68
2022/12/28 00:48:30;;;;;;;;;;;-0.30;99.90;;;;;;5027136;28;19988;-68
2022/12/28 00:51:02;;;;;;;;;;;-0.30;99.90;;;;;;5033070;28;19921;-68
2022/12/28 00:53:29;;;;;;;;;;;-0.30;99.90;;;;;;5039441;28;19921;-68
2022/12/28 00:55:55;;;;;;;;;;;-0.30;99.90;;;;;;5046323;28;19967;-68
2022/12/28 00:58:22;;;;;;;;;;;-0.30;99.90;;;;;;5046486;28;19956;-68
2022/12/28 01:00:49;;;;;;;;;;;-0.30;99.90;;;;;;5046482;28;19984;-68
2022/12/28 01:03:15;;;;;;;;;;;-0.30;99.90;;;;;;5038961;28;19949;-68
2022/12/28 01:05:42;;;;;;;;;;;-0.20;99.90;;;;;;5046467;28;19943;-68
2022/12/28 01:08:10;;;;;;;;;;;-0.30;99.90;;;;;;5046340;28;19939;-68
2022/12/28 01:10:40;;;;;;;;;;;-0.30;99.90;;;;;;5046598;28;19921;-68
2022/12/28 01:13:07;;;;;;;;;;;-0.30;99.90;;;;;;5046574;28;19989;-70
2022/12/28 01:15:33;;;;;;;;;;;-0.30;99.90;;;;;;5046403;28;19921;-68
2022/12/28 01:18:00;;;;;;;;;;;-0.30;99.90;;;;;;5045536;28;19956;-68
2022/12/28 01:20:26;;;;;;;;;;;-0.40;99.90;;;;;;5046546;28;19956;-68
2022/12/28 01:22:53;;;;;;;;;;;-0.30;99.90;;;;;;5046406;28;19980;-67
2022/12/28 01:25:21;;;;;;;;;;;-0.30;99.90;;;;;;5046414;28;19960;-68
2022/12/28 01:27:48;;;;;;;;;;;-0.30;99.90;;;;;;5045547;28;19927;-68
2022/12/28 01:30:14;;;;;;;;;;;-0.30;99.90;;;;;;5045801;28;19947;-68
2022/12/28 01:32:41;;;;;;;;;;;-0.30;99.90;;;;;;5046111;28;20112;-68
2022/12/28 01:35:08;;;;;;;;;;;-0.30;99.90;;;;;;5045682;28;19957;-69
2022/12/28 01:37:35;;;;;;;;;;;-0.30;99.90;;;;;;5043061;28;19956;-68
2022/12/28 01:40:01;;;;;;;;;;;-0.30;99.90;;;;;;5046009;28;19984;-68
2022/12/28 01:42:29;;;;;;;;;;;-0.30;99.90;;;;;;5046010;28;19988;-69
2022/12/28 01:44:56;;;;;;;;;;;-0.40;99.90;;;;;;5045863;28;19964;-68
2022/12/28 01:47:25;;;;;;;;;;;-0.30;99.90;;;;;;5044928;28;19984;-68
2022/12/28 01:49:54;;;;;;;;;;;-0.30;99.90;;;;;;5045448;28;19963;-68
2022/12/28 01:52:23;;;;;;;;;;;-0.30;99.90;;;;;;5045226;28;19935;-68
2022/12/28 01:54:51;;;;;;;;;;;-0.30;99.90;;;;;;5043780;28;19984;-68
2022/12/28 01:57:18;;;;;;;;;;;-0.20;99.90;;;;;;5044945;28;20232;-68
2022/12/28 01:59:48;;;;;;;;;;;-0.20;99.90;;;;;;5045374;28;20255;-68
2022/12/28 02:02:15;;;;;;;;;;;-0.20;99.90;;;;;;5045423;28;20261;-68
2022/12/28 02:04:42;;;;;;;;;;;-0.20;99.90;;;;;;5045514;28;19992;-68
2022/12/28 02:07:08;;;;;;;;;;;-0.20;99.90;;;;;;5044864;28;20143;-68
2022/12/28 02:09:37;;;;;;;;;;;-0.20;99.90;;;;;;5045513;28;19984;-69
2022/12/28 02:12:07;;;;;;;;;;;-0.20;99.90;;;;;;5042379;28;19988;-68
2022/12/28 02:14:34;;;;;;;;;;;-0.20;99.90;;;;;;5045393;28;19928;-68
2022/12/28 02:17:02;;;;;;;;;;;-0.20;99.90;;;;;;5044293;28;20268;-67
2022/12/28 02:19:34;;;;;;;;;;;-0.20;99.90;;;;;;5045123;28;20209;-68
2022/12/28 02:22:08;;;;;;;;;;;-0.20;99.90;;;;;;5045300;28;19921;-68
2022/12/28 02:24:44;;;;;;;;;;;-0.20;99.90;;;;;;5045475;28;19921;-68
2022/12/28 02:27:14;;;;;;;;;;;-0.10;99.90;;;;;;5044290;28;19980;-68
2022/12/28 02:29:49;;;;;;;;;;;-0.20;99.90;;;;;;5044662;28;19928;-68
2022/12/28 02:32:18;;;;;;;;;;;-0.20;99.90;;;;;;5044955;28;19932;-68
2022/12/28 02:34:48;;;;;;;;;;;-0.20;99.90;;;;;;5044513;28;20146;-68
2022/12/28 02:37:16;;;;;;;;;;;-0.20;99.90;;;;;;5043991;28;19931;-69
2022/12/28 02:39:48;;;;;;;;;;;-0.20;99.90;;;;;;5044048;28;20890;-68
2022/12/28 02:42:16;;;;;;;;;;;-0.20;99.90;;;;;;5044916;28;19989;-68
2022/12/28 02:50:31;;;;;;;;;;;-0.10;99.90;;;;;;5000954;28;19922;-68
2022/12/28 02:53:25;;;;;;;;;;;-0.10;99.90;;;;;;4983750;28;19922;-68
2022/12/28 02:56:06;;;;;;;;;;;-0.10;99.90;;;;;;4981692;28;19984;-68
2022/12/28 02:58:48;;;;;;;;;;;-0.10;99.90;;;;;;5044654;28;19959;-68
2022/12/28 03:01:20;;;;;;;;;;;0.00;99.90;;;;;;5044194;28;19948;-68
2022/12/28 03:03:53;;;;;;;;;;;0.00;99.90;;;;;;5024093;28;19989;-68
2022/12/28 03:09:13;;;;;;;;;;;0.00;99.90;;;;;;5024362;28;20228;-68
2022/12/28 03:11:43;;;;;;;;;;;0.00;99.90;;;;;;5024384;28;19944;-68
2022/12/28 03:14:12;;;;;;;;;;;0.00;99.90;;;;;;5024513;28;19990;-69
2022/12/28 03:33:08;;;;;;;;;;;0.20;99.90;;;;;;5043518;28;19944;-68
2022/12/28 03:35:42;;;;;;;;;;;0.30;99.90;;;;;;5043661;28;19932;-67
2022/12/28 03:38:11;;;;;;;;;;;0.30;99.90;;;;;;5042957;28;19921;-68
2022/12/28 03:40:42;;;;;;;;;;;0.30;99.90;;;;;;5043772;28;19984;-68
2022/12/28 03:45:57;;;;;;;;;;;0.40;99.90;;;;;;5043002;28;20476;-68
2022/12/28 03:48:24;;;;;;;;;;;0.40;99.90;;;;;;5042878;28;20239;-68
2022/12/28 03:50:53;;;;;;;;;;;0.40;99.90;;;;;;5043537;28;20106;-68
2022/12/28 03:53:20;;;;;;;;;;;0.40;99.90;;;;;;5043550;28;19984;-68
2022/12/28 03:55:47;;;;;;;;;;;0.40;99.90;;;;;;5042786;28;19983;-70
2022/12/28 03:58:14;;;;;;;;;;;0.40;99.90;;;;;;5043233;28;19956;-68
2022/12/28 04:00:40;;;;;;;;;;;0.40;99.90;;;;;;5043113;28;20166;-68
2022/12/28 04:03:07;;;;;;;;;;;0.50;99.90;;;;;;5043096;28;19956;-68
2022/12/28 04:05:33;;;;;;;;;;;0.40;99.90;;;;;;5043432;28;19952;-68
2022/12/28 04:08:01;;;;;;;;;;;0.50;99.90;;;;;;5042806;28;19921;-68
2022/12/28 04:10:28;;;;;;;;;;;0.50;99.90;;;;;;5043062;28;19960;-67
2022/12/28 04:12:55;;;;;;;;;;;0.50;99.90;;;;;;5042968;28;20161;-68
2022/12/28 04:15:22;;;;;;;;;;;0.50;99.90;;;;;;5042872;28;20152;-68
2022/12/28 04:17:49;;;;;;;;;;;0.50;99.90;;;;;;5042243;28;19988;-68
2022/12/28 04:20:15;;;;;;;;;;;0.60;99.90;;;;;;5043071;28;19960;-68
2022/12/28 04:22:42;;;;;;;;;;;0.60;99.90;;;;;;5043014;28;20383;-68
2022/12/28 04:25:10;;;;;;;;;;;0.70;99.90;;;;;;5043213;28;19984;-68
2022/12/28 04:27:37;;;;;;;;;;;0.80;99.90;;;;;;5042438;28;19996;-68
2022/12/28 04:30:03;;;;;;;;;;;0.90;99.90;;;;;;5042961;28;19984;-68
2022/12/28 04:32:30;;;;;;;;;;;1.00;99.90;;;;;;5042771;28;20213;-68
2022/12/28 04:34:57;;;;;;;;;;;1.10;99.90;;;;;;5043189;28;19952;-68
2022/12/28 04:37:23;;;;;;;;;;;1.10;99.90;;;;;;5041970;28;19921;-68
2022/12/28 04:39:50;;;;;;;;;;;1.10;99.90;;;;;;5043062;28;19956;-68
2022/12/28 04:42:18;;;;;;;;;;;1.20;99.90;;;;;;5042954;28;19952;-68
2022/12/28 04:44:45;;;;;;;;;;;1.40;99.90;;;;;;5042791;28;19945;-68
2022/12/28 04:47:12;;;;;;;;;;;1.40;99.90;;;;;;5041927;28;20247;-68
2022/12/28 04:49:38;;;;;;;;;;;1.50;99.90;;;;;;5042797;28;19948;-68
2022/12/28 04:52:05;;;;;;;;;;;1.50;99.90;;;;;;5042880;28;20183;-67
2022/12/28 04:54:32;;;;;;;;;;;1.60;99.90;;;;;;5042598;28;19952;-68
2022/12/28 04:56:58;;;;;;;;;;;1.70;99.90;;;;;;5042078;28;19959;-68
2022/12/28 04:59:26;;;;;;;;;;;1.70;99.90;;;;;;5042664;28;19984;-68
2022/12/28 05:01:53;;;;;;;;;;;1.70;99.90;;;;;;5039514;28;19921;-68
2022/12/28 05:04:19;;;;;;;;;;;1.80;99.90;;;;;;5023110;28;19966;-68
2022/12/28 05:06:46;;;;;;;;;;;1.80;99.90;;;;;;5021861;28;19988;-68
2022/12/28 05:09:13;;;;;;;;;;;1.80;99.90;;;;;;5023101;28;19948;-68
2022/12/28 05:11:39;;;;;;;;;;;1.80;99.90;;;;;;5022943;28;20280;-68
2022/12/28 05:14:06;;;;;;;;;;;1.80;99.90;;;;;;5023171;28;19988;-68
2022/12/28 05:16:34;;;;;;;;;;;1.90;99.90;;;;;;5039870;28;19921;-68
2022/12/28 05:19:00;;;;;;;;;;;1.80;99.90;;;;;;5042881;28;19993;-68
2022/12/28 05:21:28;;;;;;;;;;;1.90;99.90;;;;;;5042856;28;19921;-68
2022/12/28 05:23:54;;;;;;;;;;;1.80;99.90;;;;;;5042687;28;19992;-68
2022/12/28 05:26:22;;;;;;;;;;;1.80;99.90;;;;;;5044090;28;19995;-68
2022/12/28 05:28:49;;;;;;;;;;;1.80;99.90;;;;;;5045987;28;19921;-67
2022/12/28 05:31:16;;;;;;;;;;;1.80;99.90;;;;;;5046171;28;19921;-68
2022/12/28 05:33:46;;;;;;;;;;;1.90;99.90;;;;;;5045985;28;20183;-71
2022/12/28 05:36:13;;;;;;;;;;;1.80;99.90;;;;;;5045187;28;19927;-69
2022/12/28 05:38:40;;;;;;;;;;;1.80;99.90;;;;;;5045791;28;19927;-69
2022/12/28 05:41:07;;;;;;;;;;;1.80;99.90;;;;;;5046674;28;19921;-69
2022/12/28 05:43:34;;;;;;;;;;;1.80;99.90;;;;;;5046968;28;19987;-69
2022/12/28 05:46:02;;;;;;;;;;;1.80;99.90;;;;;;5046331;28;19929;-70
2022/12/28 05:48:32;;;;;;;;;;;1.90;99.90;;;;;;5046432;28;19925;-70
2022/12/28 05:51:02;;;;;;;;;;;1.80;99.90;;;;;;5045458;28;19921;-69
2022/12/28 05:53:29;;;;;;;;;;;1.80;99.90;;;;;;5045456;28;19992;-69
2022/12/28 05:56:06;;;;;;;;;;;1.80;99.90;;;;;;5044999;28;19967;-69
2022/12/28 05:58:32;;;;;;;;;;;1.70;99.90;;;;;;5045712;28;19928;-69
2022/12/28 06:01:06;;;;;;;;;;;1.70;99.90;;;;;;5045702;28;19928;-69
2022/12/28 06:03:33;;;;;;;;;;;1.70;99.90;;;;;;5025906;28;19988;-69
2022/12/28 06:06:04;;;;;;;;;;;1.70;99.90;;;;;;5025118;28;20287;-73
2022/12/28 06:08:30;;;;;;;;;;;1.70;99.90;;;;;;5025399;28;20284;-68
2022/12/28 06:10:59;;;;;;;;;;;1.60;99.90;;;;;;5025721;28;19957;-70
2022/12/28 06:13:25;;;;;;;;;;;1.70;99.90;;;;;;5025545;28;19928;-69
2022/12/28 06:15:52;;;;;;;;;;;1.70;99.90;;;;;;5042675;28;20240;-69
2022/12/28 06:18:19;;;;;;;;;;;1.70;99.90;;;;;;5044789;28;19992;-68
2022/12/28 06:20:45;;;;;;;;;;;1.70;99.90;;;;;;5043107;28;19951;-70
2022/12/28 06:23:13;;;;;;;;;;;1.70;99.90;;;;;;5044846;28;19921;-69
2022/12/28 06:25:40;;;;;;;;;;;1.70;99.90;;;;;;5044880;28;19961;-69
2022/12/28 06:28:06;;;;;;;;;;;1.70;99.90;;;;;;5044438;28;19956;-71
2022/12/28 06:30:39;;;;;;;;;;;1.70;99.90;;;;;;5042420;28;19967;-69
2022/12/28 06:33:05;;;;;;;;;;;1.80;99.90;;;;;;5044371;28;19921;-68
2022/12/28 06:35:32;;;;;;;;;;;1.80;99.90;;;;;;5044263;28;20115;-71
2022/12/28 06:37:59;;;;;;;;;;;1.80;99.90;;;;;;5043368;28;19956;-69
2022/12/28 06:40:27;;;;;;;;;;;1.80;99.90;;;;;;5044351;28;19927;-69
2022/12/28 06:42:54;;;;;;;;;;;1.80;99.90;;;;;;5044984;28;19984;-69
2022/12/28 06:45:21;;;;;;;;;;;1.80;99.90;;;;;;5044717;28;19984;-69
2022/12/28 06:47:48;;;;;;;;;;;1.90;99.90;;;;;;5044157;28;19975;-69
2022/12/28 06:50:14;;;;;;;;;;;2.00;99.90;;;;;;5044435;28;19956;-69
2022/12/28 06:52:41;;;;;;;;;;;2.00;99.90;;;;;;5043838;28;19988;-68
2022/12/28 06:55:08;;;;;;;;;;;2.10;99.90;;;;;;5044405;28;19992;-69
2022/12/28 06:57:36;;;;;;;;;;;2.10;99.90;;;;;;5043900;28;19996;-68
2022/12/28 07:00:03;;;;;;;;;;;2.10;99.90;;;;;;5044652;28;19980;-68
2022/12/28 07:02:30;;;;;;;;;;;2.10;99.90;;;;;;5044611;28;19927;-69
2022/12/28 07:04:56;;;;;;;;;;;2.10;99.90;;;;;;5043958;28;20394;-69
2022/12/28 07:07:23;;;;;;;;;;;2.20;99.90;;;;;;5043530;28;19988;-68
2022/12/28 07:09:50;;;;;;;;;;;2.10;99.90;;;;;;5044249;28;19921;-69
2022/12/28 07:12:16;;;;;;;;;;;2.10;99.90;;;;;;5044324;28;20173;-69
2022/12/28 07:14:44;;;;;;;;;;;2.10;99.90;;;;;;5043927;28;19960;-69
2022/12/28 07:17:11;;;;;;;;;;;2.20;99.90;;;;;;5043655;28;19987;-69
2022/12/28 07:19:37;;;;;;;;;;;2.20;99.90;;;;;;5044153;28;19929;-69
2022/12/28 07:22:04;;;;;;;;;;;2.30;99.90;;;;;;5044233;28;19953;-69
2022/12/28 07:24:31;;;;;;;;;;;2.30;99.90;;;;;;5044143;28;19952;-69
2022/12/28 07:26:57;;;;;;;;;;;2.30;99.90;;;;;;5043311;28;19959;-69
2022/12/28 07:29:24;;;;;;;;;;;2.30;99.90;;;;;;5043360;28;20180;-69
2022/12/28 07:31:52;;;;;;;;;;;2.20;99.90;;;;;;5043536;28;20004;-69
2022/12/28 07:34:18;;;;;;;;;;;2.20;99.90;;;;;;5043307;28;19927;-69
2022/12/28 07:36:45;;;;;;;;;;;2.20;99.90;;;;;;5041654;28;19974;-69
2022/12/28 07:39:12;;;;;;;;;;;2.30;99.90;;;;;;5043599;28;20216;-69
2022/12/28 07:41:38;;;;;;;;;;;2.40;99.90;;;;;;5043445;28;19988;-68
2022/12/28 07:44:05;;;;;;;;;;;2.40;99.90;;;;;;5043386;28;19952;-68
2022/12/28 07:46:32;;;;;;;;;;;2.50;99.90;;;;;;5042974;28;19963;-68
2022/12/28 07:49:00;;;;;;;;;;;2.50;99.90;;;;;;5043270;28;19956;-69
2022/12/28 07:51:29;;;;;;;;;;;2.50;99.90;;;;;;5043716;28;19952;-69
2022/12/28 07:53:56;;;;;;;;;;;2.50;99.90;;;;;;5043299;28;20161;-68
2022/12/28 07:56:23;;;;;;;;;;;2.50;99.90;;;;;;5042508;28;19996;-67
2022/12/28 07:58:50;;;;;;;;;;;2.50;99.90;;;;;;5043100;28;20000;-69
2022/12/28 08:01:17;;;;;;;;;;;2.50;99.90;;;;;;5043571;28;19963;-69
2022/12/28 08:03:44;;;;;;;;;;;2.60;99.90;;;;;;5043663;28;19980;-69
2022/12/28 08:06:13;;;;;;;;;;;2.70;99.90;;;;;;5042352;28;19928;-69
2022/12/28 08:08:41;;;;;;;;;;;2.70;99.90;;;;;;5043321;28;20167;-69
2022/12/28 08:11:09;;;;;;;;;;;2.70;99.90;;;;;;5039990;28;19992;-69
2022/12/28 08:13:36;;;;;;;;;;;2.70;99.90;;;;;;5043490;28;20183;-69
2022/12/28 08:16:04;;;;;;;;;;;2.80;99.90;;;;;;5042841;28;19984;-69
2022/12/28 08:18:30;;;;;;;;;;;2.80;99.90;;;;;;5043154;28;19988;-69
2022/12/28 08:21:00;;;;;;;;;;;2.80;99.90;;;;;;5043384;28;19927;-69
2022/12/28 08:23:28;;;;;;;;;;;2.80;99.90;;;;;;5043110;28;20000;-69
2022/12/28 08:25:55;;;;;;;;;;;2.90;99.90;;;;;;5042887;28;20040;-69
2022/12/28 08:28:27;;;;;;;;;;;2.90;99.90;;;;;;5042474;28;19936;-69
2022/12/28 08:33:57;;;;;;;;;;;3.00;99.90;;;;;;5042848;28;19952;-68
2022/12/28 08:36:25;;;;;;;;;;;3.10;99.90;;;;;;5040393;28;19964;-68
2022/12/28 08:38:53;;;;;;;;;;;3.10;99.90;;;;;;5042777;28;19980;-68
2022/12/28 08:41:22;;;;;;;;;;;3.20;99.90;;;;;;5021828;28;19964;-68
2022/12/28 08:43:49;;;;;;;;;;;3.20;99.90;;;;;;5023302;28;19992;-69
2022/12/28 08:46:16;;;;;;;;;;;3.30;99.90;;;;;;5022482;28;20098;-68
2022/12/28 08:48:44;;;;;;;;;;;3.30;99.90;;;;;;5023198;28;19964;-68
2022/12/28 08:51:11;;;;;;;;;;;3.30;99.90;;;;;;5023309;28;20116;-69
2022/12/28 08:53:38;;;;;;;;;;;3.30;99.90;;;;;;5023013;28;20167;-69
2022/12/28 08:56:09;;;;;;;;;;;3.30;99.90;;;;;;5022486;28;19961;-68
2022/12/28 08:58:36;;;;;;;;;;;3.40;99.90;;;;;;5023348;28;19928;-68
2022/12/28 09:01:06;;;;;;;;;;;3.50;99.90;;;;;;5025317;28;19963;-69
2022/12/28 09:03:35;;;;;;;;;;;3.50;99.90;;;;;;5037726;28;19956;-68
2022/12/28 09:06:02;;;;;;;;;;;3.50;99.90;;;;;;5046227;28;19921;-68
2022/12/28 09:08:28;;;;;;;;;;;3.60;99.90;;;;;;5046540;28;20015;-69
2022/12/28 09:10:58;;;;;;;;;;;3.60;99.90;;;;;;5046763;28;19968;-69
2022/12/28 09:13:26;;;;;;;;;;;3.60;99.90;;;;;;5046274;28;19921;-68
2022/12/28 09:15:56;;;;;;;;;;;3.60;99.90;;;;;;5045635;28;19984;-69
2022/12/28 09:18:22;;;;;;;;;;;3.70;99.90;;;;;;5045530;28;20523;-69
2022/12/28 09:20:49;;;;;;;;;;;3.70;99.90;;;;;;5046099;28;20243;-69
2022/12/28 09:23:16;;;;;;;;;;;3.70;99.90;;;;;;5046222;28;19922;-69
2022/12/28 09:25:42;;;;;;;;;;;3.70;99.90;;;;;;5045869;28;19988;-69
2022/12/28 09:28:09;;;;;;;;;;;3.80;99.90;;;;;;5045510;28;19960;-69
2022/12/28 09:30:37;;;;;;;;;;;3.80;99.90;;;;;;5046327;28;20276;-68
2022/12/28 09:35:56;;;;;;;;;;;3.90;99.90;;;;;;5041639;28;19924;-69
2022/12/28 09:38:23;;;;;;;;;;;3.90;99.90;;;;;;5045330;28;19988;-69
2022/12/28 09:40:49;;;;;;;;;;;3.90;99.90;;;;;;5046270;28;19921;-69
2022/12/28 09:43:16;;;;;;;;;;;4.00;99.90;;;;;;5046103;28;20255;-68
2022/12/28 09:45:46;;;;;;;;;;;4.00;99.90;;;;;;5043132;28;20161;-69
2022/12/28 09:48:14;;;;;;;;;;;4.10;99.90;;;;;;5025924;28;19984;-69
2022/12/28 09:50:41;;;;;;;;;;;4.10;99.90;;;;;;5025885;28;19957;-69
2022/12/28 09:53:23;;;;;;;;;;;4.10;99.90;;;;;;5025894;28;19985;-70
2022/12/28 09:56:02;;;;;;;;;;;4.20;99.90;;;;;;5025848;28;20321;-69
2022/12/28 09:58:29;;;;;;;;;;;4.40;99.90;;;;;;5025672;28;19964;-70
2022/12/28 10:00:59;;;;;;;;;;;4.40;99.90;;;;;;5027646;28;19927;-69
2022/12/28 10:03:27;;;;;;;;;;;4.50;99.90;;;;;;5029972;28;20404;-69
2022/12/28 10:05:55;;;;;;;;;;;4.60;99.90;;;;;;5025391;28;20209;-69
2022/12/28 10:08:23;;;;;;;;;;;4.60;99.90;;;;;;5025280;28;20310;-69
2022/12/28 10:10:50;;;;;;;;;;;4.70;99.90;;;;;;5025474;28;19989;-69
2022/12/28 10:13:19;;;;;;;;;;;4.80;99.90;;;;;;5025985;28;19922;-69
2022/12/28 10:15:46;;;;;;;;;;;4.80;99.90;;;;;;5025259;28;20009;-69
2022/12/28 10:18:14;;;;;;;;;;;4.80;99.90;;;;;;5025490;28;19928;-69
2022/12/28 10:20:42;;;;;;;;;;;4.90;99.90;;;;;;5025816;28;19937;-68
2022/12/28 10:23:10;;;;;;;;;;;4.90;99.90;;;;;;5025694;28;19985;-69
2022/12/28 10:25:37;;;;;;;;;;;5.00;99.90;;;;;;5025460;28;19984;-69
2022/12/28 10:28:06;;;;;;;;;;;5.00;99.90;;;;;;5025084;28;19992;-69
2022/12/28 10:30:32;;;;;;;;;;;5.10;99.90;;;;;;5025449;28;19982;-68
2022/12/28 10:33:00;;;;;;;;;;;5.10;99.90;;;;;;5025093;28;20248;-69
2022/12/28 10:35:29;;;;;;;;;;;5.20;99.90;;;;;;5024933;28;19996;-68
2022/12/28 10:37:59;;;;;;;;;;;5.20;99.90;;;;;;5022290;28;19964;-68
2022/12/28 10:40:28;;;;;;;;;;;5.30;99.90;;;;;;5024964;28;20213;-69
2022/12/28 10:42:55;;;;;;;;;;;5.30;99.90;;;;;;5025075;28;20224;-69
2022/12/28 10:45:23;;;;;;;;;;;5.30;99.90;;;;;;5024959;28;19947;-68
2022/12/28 10:47:51;;;;;;;;;;;5.40;99.90;;;;;;5030989;28;20113;-69
2022/12/28 10:50:39;;;;;;;;;;;5.50;99.90;;;;;;5041942;28;19987;-69
2022/12/28 10:53:15;;;;;;;;;;;5.50;99.90;;;;;;5044318;28;19921;-69
2022/12/28 10:55:42;;;;;;;;;;;5.50;99.90;;;;;;5040385;28;19956;-70
2022/12/28 10:58:15;;;;;;;;;;;5.60;99.90;;;;;;5024373;28;19921;-68
2022/12/28 11:00:42;;;;;;;;;;;5.70;99.90;;;;;;5024896;28;19922;-68
2022/12/28 11:03:16;;;;;;;;;;;5.80;99.90;;;;;;5041006;28;19921;-69
2022/12/28 11:05:44;;;;;;;;;;;5.80;99.90;;;;;;5043796;28;20297;-69
2022/12/28 11:08:13;;;;;;;;;;;6.00;99.90;;;;;;5044161;28;19929;-69
2022/12/28 11:10:39;;;;;;;;;;;6.10;99.90;;;;;;5044220;28;20160;-69
2022/12/28 11:13:09;;;;;;;;;;;6.30;99.90;;;;;;5044293;28;19927;-69
2022/12/28 11:15:36;;;;;;;;;;;6.40;99.90;;;;;;5043924;28;20055;-70
2022/12/28 11:18:13;;;;;;;;;;;6.50;99.90;;;;;;5043807;28;20243;-70
2022/12/28 11:20:42;;;;;;;;;;;6.50;99.90;;;;;;5044370;28;19988;-68
2022/12/28 11:23:15;;;;;;;;;;;6.50;99.90;;;;;;5043036;28;19952;-68
2022/12/28 11:25:42;;;;;;;;;;;6.50;99.90;;;;;;5043872;28;20195;-70
2022/12/28 11:28:12;;;;;;;;;;;6.50;99.90;;;;;;5043569;28;19921;-68
2022/12/28 11:30:39;;;;;;;;;;;6.50;99.90;;;;;;5043777;28;20268;-68
2022/12/28 11:33:08;;;;;;;;;;;6.50;99.90;;;;;;5043605;28;19921;-68
2022/12/28 11:35:37;;;;;;;;;;;6.50;99.90;;;;;;5043757;28;19925;-69
2022/12/28 11:38:05;;;;;;;;;;;6.40;99.90;;;;;;5043161;28;20484;-68
2022/12/28 11:40:47;;;;;;;;;;;6.50;99.90;;;;;;5043658;28;19928;-68
2022/12/28 11:43:38;;;;;;;;;;;6.50;99.90;;;;;;5043942;28;19925;-68
2022/12/28 11:46:05;;;;;;;;;;;6.50;99.90;;;;;;5043265;28;19996;-70
2022/12/28 11:48:38;;;;;;;;;;;6.50;99.90;;;;;;5041062;28;19929;-68
2022/12/28 11:51:05;;;;;;;;;;;6.60;99.90;;;;;;5023997;28;19922;-69
2022/12/28 11:53:52;;;;;;;;;;;6.60;99.90;;;;;;5023953;28;19921;-68
2022/12/28 11:56:21;;;;;;;;;;;6.70;99.90;;;;;;5033915;28;19929;-68
2022/12/28 11:59:01;;;;;;;;;;;6.90;99.90;;;;;;5043343;28;19959;-69
2022/12/28 12:01:43;;;;;;;;;;;7.00;99.90;;;;;;5043341;28;19984;-69
2022/12/28 12:04:37;;;;;;;;;;;7.10;99.90;;;;;;5023550;28;19922;-69
2022/12/28 12:07:24;;;;;;;;;;;7.40;99.90;;;;;;5023107;28;20017;-69
2022/12/28 12:10:06;;;;;;;;;;;7.80;99.90;;;;;;5023776;28;19927;-69
2022/12/28 12:12:35;;;;;;;;;;;8.00;99.90;;;;;;5023471;28;19921;-69
2022/12/28 12:15:03;;;;;;;;;;;8.10;99.90;;;;;;5023508;28;19921;-69
2022/12/28 12:17:33;;;;;;;;;;;8.20;99.90;;;;;;5022626;28;20189;-68
2022/12/28 12:20:01;;;;;;;;;;;8.20;99.90;;;;;;5023401;28;20236;-70
2022/12/28 12:22:30;;;;;;;;;;;8.20;99.90;;;;;;5023298;28;19921;-69
2022/12/28 12:25:00;;;;;;;;;;;8.30;99.90;;;;;;5023586;28;19921;-69
2022/12/28 12:27:31;;;;;;;;;;;8.20;99.90;;;;;;5022816;28;19984;-69
2022/12/28 12:30:02;;;;;;;;;;;8.20;99.90;;;;;;5038780;28;19936;-68
2022/12/28 12:32:33;;;;;;;;;;;8.20;99.90;;;;;;5043203;28;19989;-68
2022/12/28 12:35:02;;;;;;;;;;;8.10;99.90;;;;;;5044995;28;19999;-70
2022/12/28 12:37:35;;;;;;;;;;;8.10;99.90;;;;;;5046295;28;19927;-69
2022/12/28 12:40:15;;;;;;;;;;;8.10;99.90;;;;;;5047253;28;19921;-69
2022/12/28 12:42:49;;;;;;;;;;;8.10;99.90;;;;;;5046717;28;19921;-68
2022/12/28 12:45:24;;;;;;;;;;;8.20;99.90;;;;;;5046968;28;20184;-68
2022/12/28 12:47:57;;;;;;;;;;;8.20;99.90;;;;;;5046245;28;19921;-70
2022/12/28 12:50:32;;;;;;;;;;;8.30;99.90;;;;;;5038580;28;19929;-69
2022/12/28 12:53:04;;;;;;;;;;;8.30;99.90;;;;;;5046935;28;19921;-68
2022/12/28 12:55:36;;;;;;;;;;;8.30;99.90;;;;;;5046687;28;19921;-69
2022/12/28 12:58:05;;;;;;;;;;;8.30;99.90;;;;;;5046288;28;19988;-69
2022/12/28 13:00:41;;;;;;;;;;;8.30;99.90;;;;;;5047071;28;19921;-68
2022/12/28 13:03:13;;;;;;;;;;;8.30;99.90;;;;;;5046754;28;19989;-68
2022/12/28 13:05:42;;;;;;;;;;;8.30;99.90;;;;;;5046292;28;19986;-69
2022/12/28 13:08:15;;;;;;;;;;;8.30;99.90;;;;;;5046460;28;19957;-68
2022/12/28 13:10:43;;;;;;;;;;;8.40;99.90;;;;;;5046920;28;19921;-69
2022/12/28 13:13:18;;;;;;;;;;;8.40;99.90;;;;;;5043205;28;19948;-69
2022/12/28 13:15:45;;;;;;;;;;;8.40;99.90;;;;;;5046339;28;19992;-69
2022/12/28 13:18:16;;;;;;;;;;;8.40;99.90;;;;;;5045864;28;19921;-69
2022/12/28 13:20:51;;;;;;;;;;;8.40;99.90;;;;;;5046331;28;19921;-69
2022/12/28 13:23:18;;;;;;;;;;;8.40;99.90;;;;;;5046244;28;19953;-68
2022/12/28 13:25:47;;;;;;;;;;;8.40;99.90;;;;;;5045855;28;19988;-69
2022/12/28 13:28:18;;;;;;;;;;;8.40;99.90;;;;;;5045854;28;19921;-69
2022/12/28 13:30:55;;;;;;;;;;;8.40;99.90;;;;;;5046178;28;19928;-69
2022/12/28 13:33:22;;;;;;;;;;;8.40;99.90;;;;;;5045828;28;20223;-69
2022/12/28 13:35:48;;;;;;;;;;;8.40;99.90;;;;;;5045869;28;19960;-69
2022/12/28 13:38:16;;;;;;;;;;;8.40;99.90;;;;;;5032362;28;19948;-69
2022/12/28 13:40:49;;;;;;;;;;;8.40;99.90;;;;;;5038450;28;19921;-68
2022/12/28 13:43:33;;;;;;;;;;;8.30;99.90;;;;;;5036362;28;19928;-68
2022/12/28 13:46:06;;;;;;;;;;;8.40;99.90;;;;;;5035110;28;20440;-69
2022/12/28 13:48:36;;;;;;;;;;;8.30;99.90;;;;;;5023684;28;19935;-72
2022/12/28 13:51:03;;;;;;;;;;;8.40;99.90;;;;;;5041462;28;19921;-69
2022/12/28 13:53:31;;;;;;;;;;;8.40;99.90;;;;;;5045288;28;19928;-69
2022/12/28 13:56:00;;;;;;;;;;;8.40;99.90;;;;;;5025768;28;19929;-69
2022/12/28 13:58:29;;;;;;;;;;;8.30;99.90;;;;;;5025885;28;19988;-71
2022/12/28 14:00:57;;;;;;;;;;;8.40;99.90;;;;;;5025945;28;19965;-69
2022/12/28 14:03:25;;;;;;;;;;;8.40;99.90;;;;;;5025941;28;19928;-69
2022/12/28 14:05:53;;;;;;;;;;;8.30;99.90;;;;;;5025428;28;19921;-69
2022/12/28 14:08:21;;;;;;;;;;;8.30;99.90;;;;;;5025190;28;19929;-69
2022/12/28 14:10:48;;;;;;;;;;;8.30;99.90;;;;;;5026364;28;19988;-68
2022/12/28 14:13:16;;;;;;;;;;;8.20;99.90;;;;;;5025620;28;19988;-69
2022/12/28 14:15:42;;;;;;;;;;;8.20;99.90;;;;;;5024797;28;19937;-70
2022/12/28 14:18:15;;;;;;;;;;;8.20;99.90;;;;;;5022548;28;19988;-70
2022/12/28 14:20:47;;;;;;;;;;;8.20;99.90;;;;;;5025652;28;19992;-70
2022/12/28 14:23:21;;;;;;;;;;;8.20;99.90;;;;;;5025082;28;19957;-70
2022/12/28 14:25:48;;;;;;;;;;;8.10;99.90;;;;;;5044354;28;19967;-69
2022/12/28 14:28:18;;;;;;;;;;;8.10;99.90;;;;;;5044902;28;19984;-68
2022/12/28 14:30:51;;;;;;;;;;;8.10;99.90;;;;;;5045322;28;19992;-69
2022/12/28 14:33:19;;;;;;;;;;;8.00;99.90;;;;;;5045459;28;19929;-69
2022/12/28 14:35:49;;;;;;;;;;;8.00;99.90;;;;;;5044930;28;19988;-70
2022/12/28 14:38:18;;;;;;;;;;;8.00;99.90;;;;;;5044445;28;20208;-69
2022/12/28 14:40:50;;;;;;;;;;;8.00;99.90;;;;;;5045225;28;19956;-69
2022/12/28 14:43:18;;;;;;;;;;;7.90;99.90;;;;;;5044861;28;19927;-69
2022/12/28 14:45:46;;;;;;;;;;;7.90;99.90;;;;;;5043528;28;20236;-69
2022/12/28 14:48:30;;;;;;;;;;;7.80;99.90;;;;;;5044388;28;19983;-69
2022/12/28 14:50:58;;;;;;;;;;;7.80;99.90;;;;;;5044420;28;19956;-69
2022/12/28 14:53:26;;;;;;;;;;;7.80;99.90;;;;;;5044987;28;19980;-69
2022/12/28 14:56:10;;;;;;;;;;;7.70;99.90;;;;;;5044385;28;20008;-70
2022/12/28 14:58:47;;;;;;;;;;;7.70;99.90;;;;;;5043530;28;20223;-68
2022/12/28 15:01:14;;;;;;;;;;;7.70;99.90;;;;;;5044689;28;19989;-69
2022/12/28 15:03:51;;;;;;;;;;;7.60;99.90;;;;;;5044727;28;19984;-69
2022/12/28 15:06:19;;;;;;;;;;;7.60;99.90;;;;;;5043789;28;20501;-70
2022/12/28 15:08:47;;;;;;;;;;;7.60;99.90;;;;;;5044589;28;19921;-69
2022/12/28 15:11:13;;;;;;;;;;;7.50;99.90;;;;;;5044683;28;19984;-69
2022/12/28 15:13:40;;;;;;;;;;;7.50;99.90;;;;;;5044629;28;19953;-69